<?xml version="1.0" encoding="UTF-8" standalone="no" ?>
<gpx xmlns="http://www.topografix.com/GPX/1/1" xmlns:xsi="http://www.w3.org/2001/XMLSchema-instance" xsi:schemaLocation="http://www.topografix.com/GPX/1/1 http://www.topografix.com/GPX/1/1/gpx.xsd" version="1.1" creator="VisuGPX - https://www.visugpx.com">
  <metadata>
    <name>pont bleu pont vieux</name>
    <desc><![CDATA[descente depuis route au pont vieux difficile]]></desc>
  </metadata>
  <trk>
    <name><![CDATA[9562903-pont bleu pont vieux]]></name>
    <trkseg>
      <trkpt lat="46.40114" lon="5.79267">
        <ele>590</ele>
        <time>2019-02-11T13:44:40Z</time>
      </trkpt>
      <trkpt lat="46.40108" lon="5.79317">
        <ele>588</ele>
        <time>2019-02-11T13:45:40Z</time>
      </trkpt>
      <trkpt lat="46.40112" lon="5.79417">
        <ele>586</ele>
        <time>2019-02-11T13:46:40Z</time>
      </trkpt>
      <trkpt lat="46.40056" lon="5.79536">
        <ele>583</ele>
        <time>2019-02-11T13:47:40Z</time>
      </trkpt>
      <trkpt lat="46.40094" lon="5.79572">
        <ele>583</ele>
        <time>2019-02-11T13:48:40Z</time>
      </trkpt>
      <trkpt lat="46.40115" lon="5.79851">
        <ele>573</ele>
        <time>2019-02-11T13:49:40Z</time>
      </trkpt>
      <trkpt lat="46.40095" lon="5.7994">
        <ele>567</ele>
        <time>2019-02-11T13:50:40Z</time>
      </trkpt>
      <trkpt lat="46.40027" lon="5.80106">
        <ele>564</ele>
        <time>2019-02-11T13:51:40Z</time>
      </trkpt>
      <trkpt lat="46.39901" lon="5.8006">
        <ele>564</ele>
        <time>2019-02-11T13:52:40Z</time>
      </trkpt>
      <trkpt lat="46.39877" lon="5.80125">
        <ele>563</ele>
        <time>2019-02-11T13:53:40Z</time>
      </trkpt>
      <trkpt lat="46.39803" lon="5.8019">
        <ele>560</ele>
        <time>2019-02-11T13:54:40Z</time>
      </trkpt>
      <trkpt lat="46.39761" lon="5.80287">
        <ele>553</ele>
        <time>2019-02-11T13:55:40Z</time>
      </trkpt>
      <trkpt lat="46.39627" lon="5.80361">
        <ele>536</ele>
        <time>2019-02-11T13:56:40Z</time>
      </trkpt>
      <trkpt lat="46.39716" lon="5.80417">
        <ele>522</ele>
        <time>2019-02-11T13:57:40Z</time>
      </trkpt>
      <trkpt lat="46.39721" lon="5.80469">
        <ele>511</ele>
        <time>2019-02-11T13:58:40Z</time>
      </trkpt>
      <trkpt lat="46.39777" lon="5.80547">
        <ele>494</ele>
        <time>2019-02-11T13:59:40Z</time>
      </trkpt>
      <trkpt lat="46.39751" lon="5.80574">
        <ele>485</ele>
        <time>2019-02-11T14:00:40Z</time>
      </trkpt>
      <trkpt lat="46.3979" lon="5.8063">
        <ele>476</ele>
        <time>2019-02-11T14:01:40Z</time>
      </trkpt>
      <trkpt lat="46.39706" lon="5.80685">
        <ele>478</ele>
        <time>2019-02-11T14:02:40Z</time>
      </trkpt>
      <trkpt lat="46.39555" lon="5.80684">
        <ele>496</ele>
        <time>2019-02-11T14:03:40Z</time>
      </trkpt>
      <trkpt lat="46.39427" lon="5.80714">
        <ele>521</ele>
        <time>2019-02-11T14:04:40Z</time>
      </trkpt>
      <trkpt lat="46.39416" lon="5.80729">
        <ele>528</ele>
        <time>2019-02-11T14:05:40Z</time>
      </trkpt>
      <trkpt lat="46.39446" lon="5.80764">
        <ele>541</ele>
        <time>2019-02-11T14:06:40Z</time>
      </trkpt>
      <trkpt lat="46.3936" lon="5.80822">
        <ele>558</ele>
        <time>2019-02-11T14:07:40Z</time>
      </trkpt>
      <trkpt lat="46.3943" lon="5.80863">
        <ele>574</ele>
        <time>2019-02-11T14:08:40Z</time>
      </trkpt>
      <trkpt lat="46.39436" lon="5.80897">
        <ele>582</ele>
        <time>2019-02-11T14:09:40Z</time>
      </trkpt>
      <trkpt lat="46.39414" lon="5.80906">
        <ele>585</ele>
        <time>2019-02-11T14:10:40Z</time>
      </trkpt>
      <trkpt lat="46.39383" lon="5.80929">
        <ele>587</ele>
        <time>2019-02-11T14:11:40Z</time>
      </trkpt>
      <trkpt lat="46.39375" lon="5.80953">
        <ele>587</ele>
        <time>2019-02-11T14:12:40Z</time>
      </trkpt>
      <trkpt lat="46.39376" lon="5.8101">
        <ele>589</ele>
        <time>2019-02-11T14:13:40Z</time>
      </trkpt>
      <trkpt lat="46.39424" lon="5.81033">
        <ele>591</ele>
        <time>2019-02-11T14:14:40Z</time>
      </trkpt>
      <trkpt lat="46.39444" lon="5.81059">
        <ele>590</ele>
        <time>2019-02-11T14:15:40Z</time>
      </trkpt>
      <trkpt lat="46.39516" lon="5.81089">
        <ele>592</ele>
        <time>2019-02-11T14:16:40Z</time>
      </trkpt>
      <trkpt lat="46.3958" lon="5.81093">
        <ele>593</ele>
        <time>2019-02-11T14:17:40Z</time>
      </trkpt>
      <trkpt lat="46.39627" lon="5.8107">
        <ele>592</ele>
        <time>2019-02-11T14:18:40Z</time>
      </trkpt>
      <trkpt lat="46.39596" lon="5.81097">
        <ele>594</ele>
        <time>2019-02-11T14:19:40Z</time>
      </trkpt>
      <trkpt lat="46.39534" lon="5.81094">
        <ele>592</ele>
        <time>2019-02-11T14:20:40Z</time>
      </trkpt>
      <trkpt lat="46.39607" lon="5.81131">
        <ele>597</ele>
        <time>2019-02-11T14:21:40Z</time>
      </trkpt>
      <trkpt lat="46.39645" lon="5.81104">
        <ele>596</ele>
        <time>2019-02-11T14:22:40Z</time>
      </trkpt>
      <trkpt lat="46.39737" lon="5.81126">
        <ele>603</ele>
        <time>2019-02-11T14:23:40Z</time>
      </trkpt>
      <trkpt lat="46.39813" lon="5.81178">
        <ele>611</ele>
        <time>2019-02-11T14:24:40Z</time>
      </trkpt>
      <trkpt lat="46.39877" lon="5.81208">
        <ele>612</ele>
        <time>2019-02-11T14:25:40Z</time>
      </trkpt>
      <trkpt lat="46.39917" lon="5.81244">
        <ele>614</ele>
        <time>2019-02-11T14:26:40Z</time>
      </trkpt>
      <trkpt lat="46.40001" lon="5.81255">
        <ele>610</ele>
        <time>2019-02-11T14:27:40Z</time>
      </trkpt>
      <trkpt lat="46.40058" lon="5.81278">
        <ele>610</ele>
        <time>2019-02-11T14:28:40Z</time>
      </trkpt>
      <trkpt lat="46.40137" lon="5.81283">
        <ele>606</ele>
        <time>2019-02-11T14:29:40Z</time>
      </trkpt>
      <trkpt lat="46.40175" lon="5.8129">
        <ele>605</ele>
        <time>2019-02-11T14:30:40Z</time>
      </trkpt>
      <trkpt lat="46.40211" lon="5.81264">
        <ele>601</ele>
        <time>2019-02-11T14:31:40Z</time>
      </trkpt>
      <trkpt lat="46.40326" lon="5.8126">
        <ele>595</ele>
        <time>2019-02-11T14:32:40Z</time>
      </trkpt>
      <trkpt lat="46.40383" lon="5.81257">
        <ele>587</ele>
        <time>2019-02-11T14:33:40Z</time>
      </trkpt>
      <trkpt lat="46.40422" lon="5.81316">
        <ele>592</ele>
        <time>2019-02-11T14:34:40Z</time>
      </trkpt>
      <trkpt lat="46.40492" lon="5.81386">
        <ele>595</ele>
        <time>2019-02-11T14:35:40Z</time>
      </trkpt>
      <trkpt lat="46.40613" lon="5.81414">
        <ele>581</ele>
        <time>2019-02-11T14:36:40Z</time>
      </trkpt>
      <trkpt lat="46.40707" lon="5.81448">
        <ele>582</ele>
        <time>2019-02-11T14:37:40Z</time>
      </trkpt>
      <trkpt lat="46.40633" lon="5.81396">
        <ele>574</ele>
        <time>2019-02-11T14:38:40Z</time>
      </trkpt>
      <trkpt lat="46.40592" lon="5.81377">
        <ele>575</ele>
        <time>2019-02-11T14:39:40Z</time>
      </trkpt>
      <trkpt lat="46.40465" lon="5.81254">
        <ele>566</ele>
        <time>2019-02-11T14:40:40Z</time>
      </trkpt>
      <trkpt lat="46.40385" lon="5.81169">
        <ele>558</ele>
        <time>2019-02-11T14:41:40Z</time>
      </trkpt>
      <trkpt lat="46.40263" lon="5.81085">
        <ele>549</ele>
        <time>2019-02-11T14:42:40Z</time>
      </trkpt>
      <trkpt lat="46.4022" lon="5.81063">
        <ele>550</ele>
        <time>2019-02-11T14:43:40Z</time>
      </trkpt>
      <trkpt lat="46.4017" lon="5.81004">
        <ele>538</ele>
        <time>2019-02-11T14:44:40Z</time>
      </trkpt>
      <trkpt lat="46.4014" lon="5.80974">
        <ele>530</ele>
        <time>2019-02-11T14:45:40Z</time>
      </trkpt>
      <trkpt lat="46.40069" lon="5.80943">
        <ele>529</ele>
        <time>2019-02-11T14:46:40Z</time>
      </trkpt>
      <trkpt lat="46.39998" lon="5.80912">
        <ele>526</ele>
        <time>2019-02-11T14:47:40Z</time>
      </trkpt>
      <trkpt lat="46.40125" lon="5.80903">
        <ele>500</ele>
        <time>2019-02-11T14:48:40Z</time>
      </trkpt>
      <trkpt lat="46.40212" lon="5.80929">
        <ele>491</ele>
        <time>2019-02-11T14:49:40Z</time>
      </trkpt>
      <trkpt lat="46.4033" lon="5.80974">
        <ele>491</ele>
        <time>2019-02-11T14:50:40Z</time>
      </trkpt>
      <trkpt lat="46.40398" lon="5.81005">
        <ele>496</ele>
        <time>2019-02-11T14:51:40Z</time>
      </trkpt>
      <trkpt lat="46.4044" lon="5.8103">
        <ele>505</ele>
        <time>2019-02-11T14:52:40Z</time>
      </trkpt>
      <trkpt lat="46.40504" lon="5.81086">
        <ele>504</ele>
        <time>2019-02-11T14:53:40Z</time>
      </trkpt>
      <trkpt lat="46.40595" lon="5.81173">
        <ele>507</ele>
        <time>2019-02-11T14:54:40Z</time>
      </trkpt>
      <trkpt lat="46.4062" lon="5.81165">
        <ele>507</ele>
        <time>2019-02-11T14:55:40Z</time>
      </trkpt>
      <trkpt lat="46.40606" lon="5.81142">
        <ele>505</ele>
        <time>2019-02-11T14:56:40Z</time>
      </trkpt>
      <trkpt lat="46.40555" lon="5.8107">
        <ele>505</ele>
        <time>2019-02-11T14:57:40Z</time>
      </trkpt>
      <trkpt lat="46.40474" lon="5.80924">
        <ele>531</ele>
        <time>2019-02-11T14:58:40Z</time>
      </trkpt>
      <trkpt lat="46.40394" lon="5.80873">
        <ele>529</ele>
        <time>2019-02-11T14:59:40Z</time>
      </trkpt>
      <trkpt lat="46.40313" lon="5.80817">
        <ele>520</ele>
        <time>2019-02-11T15:00:40Z</time>
      </trkpt>
      <trkpt lat="46.40292" lon="5.80796">
        <ele>520</ele>
        <time>2019-02-11T15:01:40Z</time>
      </trkpt>
      <trkpt lat="46.40274" lon="5.80765">
        <ele>526</ele>
        <time>2019-02-11T15:02:40Z</time>
      </trkpt>
      <trkpt lat="46.40218" lon="5.80712">
        <ele>530</ele>
        <time>2019-02-11T15:03:40Z</time>
      </trkpt>
      <trkpt lat="46.40188" lon="5.80683">
        <ele>532</ele>
        <time>2019-02-11T15:04:40Z</time>
      </trkpt>
      <trkpt lat="46.40145" lon="5.80654">
        <ele>533</ele>
        <time>2019-02-11T15:05:40Z</time>
      </trkpt>
      <trkpt lat="46.40123" lon="5.80633">
        <ele>534</ele>
        <time>2019-02-11T15:06:40Z</time>
      </trkpt>
      <trkpt lat="46.40098" lon="5.80614">
        <ele>536</ele>
        <time>2019-02-11T15:07:40Z</time>
      </trkpt>
      <trkpt lat="46.40101" lon="5.80595">
        <ele>540</ele>
        <time>2019-02-11T15:08:40Z</time>
      </trkpt>
      <trkpt lat="46.40127" lon="5.80573">
        <ele>547</ele>
        <time>2019-02-11T15:09:40Z</time>
      </trkpt>
      <trkpt lat="46.40118" lon="5.80541">
        <ele>549</ele>
        <time>2019-02-11T15:10:40Z</time>
      </trkpt>
      <trkpt lat="46.40146" lon="5.80525">
        <ele>554</ele>
        <time>2019-02-11T15:11:40Z</time>
      </trkpt>
      <trkpt lat="46.40172" lon="5.80535">
        <ele>556</ele>
        <time>2019-02-11T15:12:40Z</time>
      </trkpt>
      <trkpt lat="46.4018" lon="5.80508">
        <ele>559</ele>
        <time>2019-02-11T15:13:40Z</time>
      </trkpt>
      <trkpt lat="46.40173" lon="5.80472">
        <ele>560</ele>
        <time>2019-02-11T15:14:40Z</time>
      </trkpt>
      <trkpt lat="46.40159" lon="5.80431">
        <ele>562</ele>
        <time>2019-02-11T15:15:40Z</time>
      </trkpt>
      <trkpt lat="46.40159" lon="5.80414">
        <ele>563</ele>
        <time>2019-02-11T15:16:40Z</time>
      </trkpt>
      <trkpt lat="46.40181" lon="5.80397">
        <ele>565</ele>
        <time>2019-02-11T15:17:40Z</time>
      </trkpt>
      <trkpt lat="46.40191" lon="5.80371">
        <ele>566</ele>
        <time>2019-02-11T15:18:40Z</time>
      </trkpt>
      <trkpt lat="46.40191" lon="5.80354">
        <ele>567</ele>
        <time>2019-02-11T15:19:40Z</time>
      </trkpt>
      <trkpt lat="46.40183" lon="5.80324">
        <ele>567</ele>
        <time>2019-02-11T15:20:40Z</time>
      </trkpt>
      <trkpt lat="46.40184" lon="5.80294">
        <ele>566</ele>
        <time>2019-02-11T15:21:40Z</time>
      </trkpt>
      <trkpt lat="46.40188" lon="5.80225">
        <ele>564</ele>
        <time>2019-02-11T15:22:40Z</time>
      </trkpt>
      <trkpt lat="46.40183" lon="5.80123">
        <ele>563</ele>
        <time>2019-02-11T15:23:40Z</time>
      </trkpt>
      <trkpt lat="46.40153" lon="5.8004">
        <ele>565</ele>
        <time>2019-02-11T15:24:40Z</time>
      </trkpt>
      <trkpt lat="46.40139" lon="5.79998">
        <ele>565</ele>
        <time>2019-02-11T15:25:40Z</time>
      </trkpt>
      <trkpt lat="46.40118" lon="5.7996">
        <ele>567</ele>
        <time>2019-02-11T15:26:40Z</time>
      </trkpt>
      <trkpt lat="46.40103" lon="5.79937">
        <ele>568</ele>
        <time>2019-02-11T15:27:40Z</time>
      </trkpt>
      <trkpt lat="46.40121" lon="5.79868">
        <ele>572</ele>
        <time>2019-02-11T15:28:40Z</time>
      </trkpt>
      <trkpt lat="46.4011" lon="5.79772">
        <ele>576</ele>
        <time>2019-02-11T15:29:40Z</time>
      </trkpt>
      <trkpt lat="46.40092" lon="5.79685">
        <ele>581</ele>
        <time>2019-02-11T15:30:40Z</time>
      </trkpt>
      <trkpt lat="46.40091" lon="5.79587">
        <ele>583</ele>
        <time>2019-02-11T15:31:40Z</time>
      </trkpt>
      <trkpt lat="46.40063" lon="5.79531">
        <ele>583</ele>
        <time>2019-02-11T15:32:40Z</time>
      </trkpt>
      <trkpt lat="46.40109" lon="5.79433">
        <ele>585</ele>
        <time>2019-02-11T15:33:40Z</time>
      </trkpt>
      <trkpt lat="46.40111" lon="5.79331">
        <ele>588</ele>
        <time>2019-02-11T15:34:40Z</time>
      </trkpt>
      <trkpt lat="46.40121" lon="5.79276">
        <ele>590</ele>
        <time>2019-02-11T15:35:40Z</time>
      </trkpt>
    </trkseg>
  </trk>
</gpx>